Tiempo atmosférico en la estación meteorológica de Barx, València/Valencia (340 m.)



Fecha
DESCASC
Temp. máxima en grados centígrados (hora)
DESCASC
Temp. mínima en grados centígrados (hora)
DESCASC
Temp. media en grados centígrados
DESCASC
Racha de viento máxima en m/sg (hora)
DESCASC
Velocidad máxima media en intervalos de 10 minutos(hora)
DESCASC
Precipitaciones diarias en mm
DESCASC
Precipitaciones de 00:00 a 06:00 en mm
DESCASC
Precipitaciones de 06:00 a 12:00 en mm
DESCASC
Precipitaciones de 12:00 a 18:00 en mm
DESCASC
Precipitaciones de 18:00 a 24:00 en mm
DESCASC
23-05-2018 27.5 (17:10) 12.4 (07:00) 19.9 10.83 (12:30) 6.11 (18:40) 0 0 0 0 0
22-05-2018 26.8 (13:50) 12.1 (03:00) 19.4 9.72 (16:20) 5.28 (16:20) 0 0 0 0 0
21-05-2018 24.6 (14:20) 11.8 (08:20) 18.2 8.33 (15:10) 5 (15:00) 0 0 0 0 0
20-05-2018 24.7 (14:20) 9.6 (00:00) 17.2 7.78 (16:30) 4.17 (15:50) 0 0 0 0 0
19-05-2018 24.2 (17:30) 9.6 (06:50) 16.9 7.5 (12:20) 4.17 (12:20) 0 0 0 0 0
18-05-2018 24 (14:10) 10.3 (00:00) 17.2 9.17 (14:50) 5.28 (15:10) 0 0 0 0 0
17-05-2018 22.9 (14:00) 8.1 (00:00) 15.5 10.28 (16:50) 6.11 (17:30) 0 0 0 0 0
16-05-2018 24.2 (15:10) 8.2 (00:00) 16.2 9.72 (18:50) 5.83 (18:50) 0 0 0 0 0
15-05-2018 21.8 (18:20) 8.4 (00:00) 15.1 8.89 (15:20) 5 (16:10) 0 0 0 0 0
14-05-2018 24.1 (15:20) 8.2 (00:00) 16.2 9.72 (16:00) 4.72 (16:40) 0 0 0 0 0
13-05-2018 23.2 (16:40) 9.8 (00:00) 16.5 8.89 (17:50) 5.28 (17:20) 0 0 0 0 0
12-05-2018 26 (18:00) 14.1 (00:00) 20.1 9.72 (20:50) 5.83 (20:30) 0 0 0 0 0
11-05-2018 26.3 (16:20) 10.9 (02:50) 18.6 7.22 (18:50) 4.17 (16:40) 0 0 0 0 0
10-05-2018 22.8 (15:10) 14 (00:00) 18.4 10.83 (17:30) 6.39 (18:20) 3 3 0 0 0
09-05-2018 27.5 (15:10) 13.6 (00:00) 20.6 10.28 (17:40) 5 (17:40) 0 0 0 0 0
08-05-2018 25.2 (15:10) 11.2 (00:00) 18.2 6.67 (14:20) 3.33 (15:30) 0 0 0 0 0
07-05-2018 24 (15:10) 9.2 (00:00) 16.6 6.39 (15:50) 3.89 (18:40) 0 0 0 0 0
06-05-2018 23.8 (13:50) 10.4 (06:00) 17.1 8.61 (15:40) 4.72 (17:20) 0 0 0 0 0
05-05-2018 25.4 (14:50) 11.3 (00:00) 18.3 10 (18:10) 5.28 (18:10) 0 0 0 0 0
04-05-2018 20.9 (16:10) 7 (00:00) 13.9 5.83 (12:40) 3.61 (17:10) 0 0 0 0 0
03-05-2018 25.2 (14:20) 12.4 (00:00) 18.8 10 (16:20) 5.83 (16:50) 0 0 0 0 0
02-05-2018 22.4 (15:40) 6.5 (00:00) 14.4 10 (16:10) 5 (13:30) 0 0 0 0 0
01-05-2018 18.1 (15:40) 5.3 (07:40) 11.7 9.72 (20:00) 5.56 (18:10) 0 0 0 0 0
30-04-2018 17.2 (13:10) 7.4 (00:00) 12.3 7.78 (02:00) 3.89 (16:30) 0 0 0 0 0
29-04-2018 18.2 (15:20) 10.6 (00:00) 14.4 15.28 (13:10) 6.94 (15:40) 0 0 0 0 0
28-04-2018 22.7 (14:40) 13.5 (00:00) 18.1 10.83 (16:20) 6.67 (17:00) 0 0 0 0 0

Gráficas

Temp. máximas Temp. mínimas Temp. medias Precipitaciones Rachas de viento máximas Velocidades máximas media en intervalos de 10 minutos

Datos horarios

Fecha y hora oficial Temperatura (ºC) Velocidad del viento (km/h) Dirección del viento Racha (km/h) Dirección de racha Precipitación (mm) Presión (hPa) Tendencia (hPa) Humedad (%)
2018-05-27 23:00:00 -- -- -- -- -- -- -- -- --
2018-05-27 22:00:00 16.6 2 Sudoeste 9 Este 0 -- -- 81
2018-05-27 21:00:00 17.2 4 Norte 25 Norte 0 -- -- 80
2018-05-27 20:00:00 18.4 12 Norte 29 Noroeste 0 -- -- 73
2018-05-27 19:00:00 19.1 13 Noroeste 23 Noroeste 0 -- -- 81
2018-05-27 18:00:00 20.2 12 Noroeste 24 Noroeste 0 -- -- 70
2018-05-27 17:00:00 21.3 6 Sudeste 28 Sudeste 0 -- -- 70
2018-05-27 16:00:00 22.2 16 Sur 40 Sur 0 -- -- 68
2018-05-27 15:00:00 24.5 20 Sur 35 Sur 0 -- -- 60
2018-05-27 14:00:00 25 15 Sur 30 Sur 0 -- -- 60
2018-05-27 13:00:00 23.1 8 Nordeste 16 Norte 0 -- -- 68
2018-05-27 12:00:00 22.1 10 Nordeste 17 Nordeste 0 -- -- 70
2018-05-27 11:00:00 19.9 3 Norte 9 Noroeste 0 -- -- 77
2018-05-27 10:00:00 18.9 3 Noroeste 8 Noroeste 0 -- -- 82
2018-05-27 09:00:00 18 4 Nordeste 6 Nordeste 0 -- -- 87
2018-05-27 08:00:00 16.9 0 Calma 6 Sur 0 -- -- 93
2018-05-27 07:00:00 16.3 2 Sudeste 4 Sudeste 0 -- -- 95
2018-05-27 06:00:00 16.2 0 Calma 4 Oeste 0 -- -- 97
2018-05-27 05:00:00 16.2 0 Calma 3 Este 0 -- -- 98
2018-05-27 04:00:00 15.9 2 Norte 8 Oeste 0 -- -- 99
2018-05-27 03:00:00 15.2 3 Norte 8 Norte 0 -- -- 99
2018-05-27 02:00:00 13.9 3 Sur 8 Sur 0 -- -- 96
2018-05-27 01:00:00 13.9 3 Sur 5 Sur 0 -- -- 94
2018-05-27 00:00:00 15 4 Sur 8 Sur 0 -- -- 94
2018-05-26 23:00:00 15.8 0 Calma 8 Este 0 -- -- 90
2018-05-26 22:00:00 17.3 5 Sur 12 Sur 0 -- -- 89
2018-05-26 21:00:00 18.5 6 Sur 15 Sudeste 0 -- -- 83
2018-05-26 20:00:00 20 4 Este 18 Este 0 -- -- 77
2018-05-26 19:00:00 20.4 6 Este 23 Nordeste 0 -- -- 76
2018-05-26 18:00:00 20.7 10 Este 24 Este 0 -- -- 74
2018-05-26 17:00:00 20.6 14 Nordeste 30 Nordeste 0 -- -- 76
2018-05-26 16:00:00 21.5 14 Nordeste 27 Nordeste 0 -- -- 70
2018-05-26 15:00:00 21 10 Este 23 Nordeste 0 -- -- 75
2018-05-26 14:00:00 21.4 7 Este 22 Nordeste 0 -- -- 72
2018-05-26 13:00:00 22 11 Nordeste 26 Este 0 -- -- 73
2018-05-26 12:00:00 20.3 9 Nordeste 19 Nordeste 0 -- -- 80
2018-05-26 11:00:00 19 8 Nordeste 22 Norte 0 -- -- 87
2018-05-26 10:00:00 18.1 8 Norte 14 Norte 0 -- -- 92
2018-05-26 09:00:00 17 6 Nordeste 12 Nordeste 0 -- -- 97
2018-05-26 08:00:00 15.9 3 Sur 8 Sur 0 -- -- 99
2018-05-26 07:00:00 14.9 2 Norte 8 Sudeste 0 -- -- 98
2018-05-26 06:00:00 15 0 Calma 6 Sur 0 -- -- 96
2018-05-26 05:00:00 15.8 4 Sudoeste 7 Sur 0 -- -- 94
2018-05-26 04:00:00 16.4 0 Calma 5 Norte 0 -- -- 98
2018-05-26 03:00:00 16.6 3 Norte 17 Sudeste 0 -- -- 98
2018-05-26 02:00:00 16.5 9 Sur 18 Sur 0 -- -- 99
2018-05-26 01:00:00 16.8 0 Calma 4 Sudoeste 0 -- -- 98
2018-05-26 00:00:00 17 3 Noroeste 6 Noroeste 0 -- -- 99
2018-05-25 23:00:00 17.3 4 Norte 9 Norte 0 -- -- 97
2018-05-25 22:00:00 17.6 4 Norte 10 Norte 0 -- -- 95
2018-05-25 21:00:00 18.2 8 Nordeste 13 Norte 0 -- -- 92
2018-05-25 20:00:00 20.3 4 Nordeste 13 Nordeste 0 -- -- 78
2018-05-25 19:00:00 20.8 9 Nordeste 17 Nordeste 0 -- -- 78
2018-05-25 18:00:00 20.6 7 Norte 17 Norte 0 -- -- 78
2018-05-25 17:00:00 20 4 Nordeste 17 Nordeste 0 -- -- 82
2018-05-25 16:00:00 19.3 7 Norte 15 Norte 0 -- -- 86
2018-05-25 15:00:00 17.2 8 Norte 15 Norte 0 -- -- 98
2018-05-25 14:00:00 17 4 Norte 11 Norte 0.6 -- -- 99
2018-05-25 13:00:00 16.8 6 Norte 19 Norte 0.2 -- -- 98
2018-05-25 12:00:00 17.3 8 Nordeste 21 Nordeste 0 -- -- 94
2018-05-25 11:00:00 16.9 12 Norte 21 Norte 0.4 -- -- 96
2018-05-25 10:00:00 17 10 Nordeste 32 Sudeste 0.8 -- -- 95
2018-05-25 09:00:00 17.6 8 Este 26 Sudeste 0 -- -- 86
2018-05-25 08:00:00 17.4 7 Oeste 33 Sudeste 0 -- -- 88
2018-05-25 07:00:00 17.2 5 Nordeste 22 Nordeste 0 -- -- 88
2018-05-25 06:00:00 17.3 9 Sudeste 20 Norte 0 -- -- 87
2018-05-25 05:00:00 16.9 11 Norte 22 Norte 0 -- -- 92
2018-05-25 04:00:00 16.8 7 Noroeste 16 Norte 0 -- -- 89
2018-05-25 03:00:00 17.1 2 Nordeste 12 Sudeste 0 -- -- 81
2018-05-25 02:00:00 17 3 Norte 14 Noroeste 0 -- -- 84
2018-05-25 01:00:00 16.9 6 Norte 17 Norte 0 -- -- 89
2018-05-25 00:00:00 17 8 Norte 15 Nordeste 0 -- -- 92
2018-05-24 23:00:00 17.1 8 Norte 18 Norte 0 -- -- 92
2018-05-24 22:00:00 17.4 6 Norte 20 Nordeste 0 -- -- 89
2018-05-24 21:00:00 17.8 6 Nordeste 19 Norte 0 -- -- 84
2018-05-24 20:00:00 18.3 7 Este 27 Nordeste 0 -- -- 81
2018-05-24 19:00:00 19.1 8 Este 28 Nordeste 0 -- -- 78
2018-05-24 18:00:00 19.9 13 Nordeste 28 Nordeste 0 -- -- 75
2018-05-24 17:00:00 21.2 17 Nordeste 29 Nordeste 0 -- -- 68
2018-05-24 16:00:00 21.8 19 Nordeste 32 Este 0 -- -- 65
2018-05-24 15:00:00 23 11 Este 29 Nordeste 0 -- -- 53
2018-05-24 14:00:00 22.2 13 Nordeste 25 Nordeste 0 -- -- 54
2018-05-24 13:00:00 22.7 13 Nordeste 21 Nordeste 0 -- -- 58
2018-05-24 12:00:00 20.7 7 Norte 14 Norte 0 -- -- 64
2018-05-24 11:00:00 18.1 3 Nordeste 12 Nordeste 0 -- -- 81
2018-05-24 10:00:00 18.3 5 Norte 14 Nordeste 0 -- -- 78
2018-05-24 09:00:00 17.3 5 Norte 17 Norte 0 -- -- 87
2018-05-24 08:00:00 16 4 Norte 11 Nordeste 0 -- -- 95
2018-05-24 07:00:00 13.8 0 Calma 4 Sur 0 -- -- 94
2018-05-24 06:00:00 14.5 0 Calma 4 Norte 0 -- -- 95
2018-05-24 05:00:00 14.6 0 Calma 4 Este 0 -- -- 93
2018-05-24 04:00:00 15 0 Calma 5 Sudeste 0 -- -- 92
2018-05-24 03:00:00 15.3 0 Calma 10 Oeste 0 -- -- 92
2018-05-24 02:00:00 15.9 5 Noroeste 10 Oeste 0 -- -- 93
2018-05-24 01:00:00 16.3 3 Noroeste 12 Noroeste 0 -- -- 89
2018-05-24 00:00:00 17.1 4 Norte 12 Noroeste 0 -- -- 86
2018-05-23 23:00:00 17.8 4 Norte 24 Oeste 0 -- -- 79
2018-05-23 22:00:00 19.3 7 Noroeste 26 Oeste 0 -- -- 69
2018-05-23 21:00:00 22.4 5 Norte 19 Sudeste 0 -- -- 49
2018-05-23 20:00:00 24.8 9 Sudeste 24 Sur 0 -- -- 38
2018-05-23 19:00:00 24.8 15 Sur 37 Sur 0 -- -- 41
2018-05-23 18:00:00 26.7 21 Sur 31 Sur 0 -- -- 37
2018-05-23 17:00:00 27.3 14 Sudeste 28 Sur 0 -- -- 38
2018-05-23 16:00:00 26.1 16 Sudeste 30 Sur 0 -- -- 46
2018-05-23 15:00:00 26 17 Sudeste 28 Sudeste 0 -- -- 53
2018-05-23 14:00:00 25.9 11 Sudeste 26 Sur 0 -- -- 55
2018-05-23 13:00:00 24.1 6 Este 39 Nordeste 0 -- -- 64
2018-05-23 12:00:00 23.6 9 Sudeste 18 Sudeste 0 -- -- 61
2018-05-23 11:00:00 21.3 9 Nordeste 18 Nordeste 0 -- -- 68
2018-05-23 10:00:00 19.4 6 Norte 12 Norte 0 -- -- 73
2018-05-23 09:00:00 16.5 2 Norte 8 Nordeste 0 -- -- 85
2018-05-23 08:00:00 12.6 0 Calma 6 Sur 0 -- -- 88
2018-05-23 07:00:00 12.4 3 Sudeste 9 Sudeste 0 -- -- 85
2018-05-23 06:00:00 12.8 2 Sur 10 Sur 0 -- -- 82
2018-05-23 05:00:00 13.1 4 Sur 9 Sur 0 -- -- 82
2018-05-23 04:00:00 13.9 6 Sur 9 Sur 0 -- -- 82
2018-05-23 03:00:00 13.8 3 Sur 7 Sudeste 0 -- -- 82
2018-05-23 02:00:00 14.9 6 Sur 10 Sur 0 -- -- 80
2018-05-23 01:00:00 14.8 6 Sur 9 Sur 0 -- -- 81
2018-05-23 00:00:00 15.1 0 Calma 5 Este 0 -- -- 79
2018-05-22 23:00:00 16.9 0 Calma 5 Oeste 0 -- -- 75
2018-05-22 22:00:00 18.5 3 Nordeste 6 Nordeste 0 -- -- 69
2018-05-22 21:00:00 19.8 4 Sur 12 Nordeste 0 -- -- 65
2018-05-22 20:00:00 20.3 9 Norte 15 Nordeste 0 -- -- 62
2018-05-22 19:00:00 21.2 10 Nordeste 18 Norte 0 -- -- 58
2018-05-22 18:00:00 20.9 13 Norte 30 Norte 0 -- -- 60
2018-05-22 17:00:00 24.6 13 Sur 35 Sur 0 -- -- 46
2018-05-22 16:00:00 26.4 18 Sur 32 Sudeste 0 -- -- 42
2018-05-22 15:00:00 24.9 15 Sur 27 Sur 0 -- -- 45
2018-05-22 14:00:00 26.3 12 Sur 23 Sur 0 -- -- 44
2018-05-22 13:00:00 25.2 10 Nordeste 25 Norte 0 -- -- 43
2018-05-22 12:00:00 24.1 5 Norte 15 Noroeste 0 -- -- 44
2018-05-22 11:00:00 22.8 9 Noroeste 18 Oeste 0 -- -- 48
2018-05-22 10:00:00 20.1 6 Noroeste 15 Noroeste 0 -- -- 56
2018-05-22 09:00:00 17.7 6 Noroeste 12 Noroeste 0 -- -- 65
2018-05-22 08:00:00 13.8 0 Calma 8 Sur 0 -- -- 80
2018-05-22 07:00:00 12.7 5 Sur 8 Sur 0 -- -- 84
2018-05-22 06:00:00 12.9 3 Sur 7 Sur 0 -- -- 83
2018-05-22 05:00:00 13.2 2 Este 9 Oeste 0 -- -- 81
2018-05-22 04:00:00 14.3 2 Nordeste 6 Norte 0 -- -- 80
2018-05-22 03:00:00 12.1 2 Nordeste 5 Sur 0 -- -- 81
2018-05-22 02:00:00 13.1 4 Sur 6 Sur 0 -- -- 76
2018-05-22 01:00:00 13.2 3 Sur 6 Sudeste 0 -- -- 75
2018-05-22 00:00:00 15.2 3 Sur 12 Sur 0 -- -- 65
2018-05-21 23:00:00 15.5 3 Sur 8 Sur 0 -- -- 72
2018-05-21 22:00:00 16.6 2 Nordeste 5 Noroeste 0 -- -- 71
2018-05-21 21:00:00 18.3 0 Calma 15 Norte 0 -- -- 67
2018-05-21 20:00:00 19.7 10 Norte 22 Nordeste 0 -- -- 64
2018-05-21 19:00:00 23.4 5 Sur 22 Sur 0 -- -- 46
2018-05-21 18:00:00 23.8 5 Sudeste 24 Sur 0 -- -- 41
2018-05-21 17:00:00 24 14 Sur 25 Sur 0 -- -- 45
2018-05-21 16:00:00 24.3 15 Sur 30 Sur 0 -- -- 49
2018-05-21 15:00:00 24.5 18 Sur 27 Sur 0 -- -- 48
2018-05-21 14:00:00 24.4 11 Sur 25 Norte 0 -- -- 47
2018-05-21 13:00:00 22 12 Norte 25 Norte 0 -- -- 54
2018-05-21 12:00:00 20.5 10 Norte 21 Norte 0 -- -- 56
2018-05-21 11:00:00 20.3 4 Este 13 Nordeste 0 -- -- 57
2018-05-21 10:00:00 18.8 3 Este 8 Este 0 -- -- 59
2018-05-21 09:00:00 14.4 2 Este 5 Este 0 -- -- 95
2018-05-21 08:00:00 12 2 Sur 5 Sur 0 -- -- 94
2018-05-21 07:00:00 12.3 5 Sur 8 Sudeste 0 -- -- 95
2018-05-21 06:00:00 12.5 3 Sur 6 Sudeste 0 -- -- 95
2018-05-21 05:00:00 12.9 0 Calma 5 Sudeste 0 -- -- 95
2018-05-21 04:00:00 12.2 0 Calma 6 Sudeste 0 -- -- 91
2018-05-21 03:00:00 13.5 2 Este 9 Noroeste 0 -- -- 95
2018-05-21 02:00:00 12.3 4 Sudeste 7 Sudeste 0 -- -- 86
2018-05-21 01:00:00 12.4 3 Sur 7 Sur 0 -- -- 83
2018-05-21 00:00:00 12.9 3 Sur 5 Sur 0 -- -- 83
2018-05-20 23:00:00 14.3 2 Sur 4 Sudoeste 0 -- -- 79
2018-05-20 22:00:00 16.3 2 Norte 16 Sur 0 -- -- 80
2018-05-20 21:00:00 18 10 Sur 26 Sur 0 -- -- 65
2018-05-20 20:00:00 20.1 10 Sur 23 Sudoeste 0 -- -- 63
2018-05-20 19:00:00 21.9 10 Sur 24 Sur 0 -- -- 56
2018-05-20 18:00:00 22.9 13 Sur 27 Sur 0 -- -- 52
2018-05-20 17:00:00 23.7 14 Sur 28 Sur 0 -- -- 48
2018-05-20 16:00:00 24.2 14 Sur 26 Sur 0 -- -- 44
2018-05-20 15:00:00 24.4 9 Sur 22 Sur 0 -- -- 37
2018-05-20 14:00:00 24.3 7 Sur 26 Sur 0 -- -- 40
2018-05-20 13:00:00 23.7 11 Sur 24 Norte 0 -- -- 40
2018-05-20 12:00:00 21.6 10 Norte 23 Norte 0 -- -- 44
2018-05-20 11:00:00 19.5 8 Nordeste 18 Nordeste 0 -- -- 51
2018-05-20 10:00:00 18.1 5 Noroeste 9 Norte 0 -- -- 51
2018-05-20 09:00:00 13.9 2 Nordeste 5 Noroeste 0 -- -- 84
2018-05-20 08:00:00 9.9 2 Sur 6 Sudeste 0 -- -- 91
2018-05-20 07:00:00 9.8 3 Sur 6 Sudeste 0 -- -- 87
2018-05-20 06:00:00 10.7 2 Este 6 Sudeste 0 -- -- 92
2018-05-20 05:00:00 10.5 0 Calma 8 Sur 0 -- -- 87
2018-05-20 04:00:00 10.7 3 Sur 7 Sur 0 -- -- 83
2018-05-20 03:00:00 10.4 3 Sur 5 Sur 0 -- -- 85
2018-05-20 02:00:00 11.6 0 Calma 6 Sudeste 0 -- -- 85
2018-05-20 01:00:00 12.9 4 Sur 18 Sudeste 0 -- -- 85
2018-05-20 00:00:00 13.6 8 Sur 18 Sudeste 0 -- -- 89
2018-05-19 23:00:00 15.4 9 Sudeste 18 Sudeste 0 -- -- 73
2018-05-19 22:00:00 15.2 5 Sur 13 Sur 0 -- -- 66
2018-05-19 21:00:00 18 8 Sur 19 Sudeste 0 -- -- 53
2018-05-19 20:00:00 20.2 13 Sur 25 Sur 0 -- -- 47
2018-05-19 19:00:00 21.8 15 Sur 23 Sur 0 -- -- 42
2018-05-19 18:00:00 23.6 12 Sur 26 Sur 0 -- -- 39
2018-05-19 17:00:00 24.1 9 Sur 21 Nordeste 0 -- -- 37
2018-05-19 16:00:00 23.5 11 Este 24 Norte 0 -- -- 39
2018-05-19 15:00:00 22.3 10 Nordeste 26 Norte 0 -- -- 42
2018-05-19 14:00:00 21.6 11 Nordeste 24 Nordeste 0 -- -- 49
2018-05-19 13:00:00 20.8 11 Nordeste 27 Norte 0 -- -- 57
2018-05-19 12:00:00 19.6 12 Nordeste 22 Norte 0 -- -- 60
2018-05-19 11:00:00 18 9 Norte 18 Nordeste 0 -- -- 66
2018-05-19 10:00:00 17.5 7 Norte 12 Norte 0 -- -- 70
2018-05-19 09:00:00 13.4 0 Calma 4 Este 0 -- -- 100
2018-05-19 08:00:00 10.6 2 Este 4 Este 0 -- -- 99
2018-05-19 07:00:00 9.6 0 Calma 3 Este 0 -- -- 97
2018-05-19 06:00:00 10.1 0 Calma 4 Norte 0 -- -- 97
2018-05-19 05:00:00 9.9 0 Calma 8 Sur 0 -- -- 91
2018-05-19 04:00:00 10.9 3 Sur 8 Sur 0 -- -- 91
2018-05-19 03:00:00 10.7 4 Sur 7 Sur 0 -- -- 91
2018-05-19 02:00:00 10.9 3 Sur 7 Sudeste 0 -- -- 90
2018-05-19 01:00:00 11.1 0 Calma 6 Sur 0 -- -- 86
2018-05-19 00:00:00 12.1 5 Sur 8 Sur 0 -- -- 85
2018-05-18 23:00:00 13.4 0 Calma 5 Sur 0 -- -- 80
2018-05-18 22:00:00 15.2 0 Calma 9 Norte 0 -- -- 79
2018-05-18 21:00:00 16.7 7 Norte 15 Este 0 -- -- 78
2018-05-18 20:00:00 19.6 5 Sur 26 Sur 0 -- -- 56
2018-05-18 19:00:00 20.8 8 Sudeste 26 Sur 0 -- -- 53
2018-05-18 18:00:00 21.4 11 Sur 30 Sur 0 -- -- 50
2018-05-18 17:00:00 22.5 11 Sur 30 Sur 0 -- -- 49
2018-05-18 16:00:00 22.8 18 Sur 33 Sur 0 -- -- 47
2018-05-18 15:00:00 23.3 17 Sur 33 Sur 0 -- -- 47
2018-05-18 14:00:00 23.9 11 Sur 25 Sur 0 -- -- 44
2018-05-18 13:00:00 23.2 11 Sur 27 Sur 0 -- -- 48
2018-05-18 12:00:00 19.7 5 Nordeste 15 Nordeste 0 -- -- 59
2018-05-18 11:00:00 19.7 8 Nordeste 14 Nordeste 0 -- -- 59
2018-05-18 10:00:00 17.5 4 Norte 12 Noroeste 0 -- -- 70
2018-05-18 09:00:00 14.7 4 Noroeste 10 Noroeste 0 -- -- 89
2018-05-18 08:00:00 11.2 3 Sur 5 Sur 0 -- -- 92
2018-05-18 07:00:00 11.2 3 Nordeste 6 Sur 0 -- -- 97
2018-05-18 06:00:00 10.8 2 Sudeste 6 Noroeste 0 -- -- 88
2018-05-18 05:00:00 11.6 3 Este 7 Sur 0 -- -- 90
2018-05-18 04:00:00 12.3 0 Calma 6 Nordeste 0 -- -- 91
2018-05-18 03:00:00 11.5 2 Sur 4 Sudoeste 0 -- -- 82
2018-05-18 02:00:00 13 0 Calma 8 Noroeste 0 -- -- 79
2018-05-18 01:00:00 14 2 Sur 8 Noroeste 0 -- -- 74
2018-05-18 00:00:00 15.4 0 Calma 16 Sur 0 -- -- 69
2018-05-17 23:00:00 16.4 8 Sudeste 26 Sur 0 -- -- 62
2018-05-17 22:00:00 16.6 6 Sudeste 31 Sur 0 -- -- 64
2018-05-17 21:00:00 17.7 16 Sur 28 Sur 0 -- -- 58
2018-05-17 20:00:00 20.1 15 Sur 28 Sur 0 -- -- 55
2018-05-17 19:00:00 21.8 15 Sur 31 Sudeste 0 -- -- 50
2018-05-17 18:00:00 22 19 Sur 34 Sur 0 -- -- 44
2018-05-17 17:00:00 22.4 21 Sur 37 Sur 0 -- -- 45
2018-05-17 16:00:00 22.7 19 Sur 37 Sur 0 -- -- 44
2018-05-17 15:00:00 22.5 20 Sur 34 Sur 0 -- -- 46
2018-05-17 14:00:00 22.9 18 Sur 33 Sur 0 -- -- 44
2018-05-17 13:00:00 22.5 17 Sur 32 Sur 0 -- -- 44
2018-05-17 12:00:00 22.3 12 Sur 23 Sur 0 -- -- 46
2018-05-17 11:00:00 19.8 8 Norte 18 Nordeste 0 -- -- 52
2018-05-17 10:00:00 17.8 5 Nordeste 10 Norte 0 -- -- 56
2018-05-17 09:00:00 12.8 2 Este 3 Este 0 -- -- 81
2018-05-17 08:00:00 9.3 2 Sur 8 Sur 0 -- -- 86
2018-05-17 07:00:00 8.1 2 Sur 4 Sur 0 -- -- 86
2018-05-17 06:00:00 8.6 0 Calma 6 Sur 0 -- -- 82
2018-05-17 05:00:00 8.9 4 Sur 7 Sur 0 -- -- 82
2018-05-17 04:00:00 9.1 2 Sur 6 Sur 0 -- -- 78
2018-05-17 03:00:00 9.9 2 Sur 6 Sur 0 -- -- 75
2018-05-17 02:00:00 10.9 0 Calma 7 Sur 0 -- -- 69
2018-05-17 01:00:00 12.6 4 Sur 8 Sur 0 -- -- 64
2018-05-17 00:00:00 14.2 7 Sudoeste 17 Sur 0 -- -- 57
2018-05-16 23:00:00 15.6 11 Sur 19 Sur 0 -- -- 57
2018-05-16 22:00:00 16.4 8 Sudeste 22 Sur 0 -- -- 54
2018-05-16 21:00:00 16.9 12 Sur 35 Sur 0 -- -- 54
2018-05-16 20:00:00 19.1 14 Sur 33 Sur 0 -- -- 50
2018-05-16 19:00:00 20 17 Sur 35 Sur 0 -- -- 40
2018-05-16 18:00:00 21.7 17 Sur 29 Sur 0 -- -- 35
2018-05-16 17:00:00 21.4 12 Nordeste 27 Nordeste 0 -- -- 37
2018-05-16 16:00:00 21.9 14 Nordeste 24 Nordeste 0 -- -- 38
2018-05-16 15:00:00 23.7 6 Sudoeste 29 Noroeste 0 -- -- 37
2018-05-16 14:00:00 21.8 13 Nordeste 32 Este 0 -- -- 40
2018-05-16 13:00:00 21.2 15 Nordeste 25 Norte 0 -- -- 46
2018-05-16 12:00:00 20.5 10 Nordeste 20 Nordeste 0 -- -- 52
2018-05-16 11:00:00 18.8 8 Nordeste 15 Nordeste 0 -- -- 59
2018-05-16 10:00:00 17.2 6 Nordeste 12 Norte 0 -- -- 61
2018-05-16 09:00:00 12 0 Calma 3 Nordeste 0 -- -- 91
2018-05-16 08:00:00 8.3 0 Calma 4 Este 0 -- -- 90
2018-05-16 07:00:00 8.4 3 Sur 8 Sur 0 -- -- 86
2018-05-16 06:00:00 9.3 4 Sur 8 Sur 0 -- -- 84
2018-05-16 05:00:00 9.5 5 Sur 9 Sur 0 -- -- 84
2018-05-16 04:00:00 9.2 3 Sur 6 Sur 0 -- -- 85
2018-05-16 03:00:00 9.2 3 Sur 6 Sur 0 -- -- 84
2018-05-16 02:00:00 9.8 4 Sur 6 Sur 0 -- -- 81
2018-05-16 01:00:00 9.9 0 Calma 3 Sur 0 -- -- 80
2018-05-16 00:00:00 11.1 0 Calma 5 Sur 0 -- -- 76
2018-05-15 23:00:00 13.1 3 Sur 6 Sur 0 -- -- 69
2018-05-15 22:00:00 15.1 2 Sur 9 Sudoeste 0 -- -- 66
2018-05-15 21:00:00 18.4 2 Oeste 16 Sudeste 0 -- -- 56
2018-05-15 20:00:00 20.2 11 Sur 22 Sur 0 -- -- 50
2018-05-15 19:00:00 21 13 Sur 22 Sur 0 -- -- 52
2018-05-15 18:00:00 21.4 12 Sur 22 Sur 0 -- -- 48
2018-05-15 17:00:00 20.9 17 Sur 28 Sur 0 -- -- 51
2018-05-15 16:00:00 21.1 17 Sur 32 Sur 0 -- -- 49
2018-05-15 15:00:00 20.9 15 Sur 28 Sur 0 -- -- 50
2018-05-15 14:00:00 20.6 17 Sur 28 Sur 0 -- -- 51
2018-05-15 13:00:00 19.8 10 Sur 22 Sur 0 -- -- 50
2018-05-15 12:00:00 17.1 6 Nordeste 21 Nordeste 0 -- -- 57
2018-05-15 11:00:00 17.3 3 Sudoeste 12 Norte 0 -- -- 54
2018-05-15 10:00:00 15.6 4 Nordeste 7 Este 0 -- -- 54
2018-05-15 09:00:00 10.9 0 Calma 3 Este 0 -- -- 76
2018-05-15 08:00:00 8.5 0 Calma 8 Sudeste 0 -- -- 90
2018-05-15 07:00:00 8.5 5 Sur 7 Sudeste 0 -- -- 92
2018-05-15 06:00:00 9.4 0 Calma 4 Sudoeste 0 -- -- 95
2018-05-15 05:00:00 10.3 0 Calma 5 Oeste 0 -- -- 98
2018-05-15 04:00:00 10.4 0 Calma 6 Oeste 0 -- -- 97
2018-05-15 03:00:00 9.9 0 Calma 3 Norte 0 -- -- 94
2018-05-15 02:00:00 10.9 2 Norte 4 Oeste 0 -- -- 94
2018-05-15 01:00:00 10.6 3 Oeste 5 Oeste 0 -- -- 84
2018-05-15 00:00:00 11.9 0 Calma 4 Sur 0 -- -- 78
2018-05-14 23:00:00 13.1 0 Calma 7 Sur 0 -- -- 69
2018-05-14 22:00:00 16 3 Sur 11 Sur 0 -- -- 60
2018-05-14 21:00:00 18.8 8 Sur 15 Sur 0 -- -- 52
2018-05-14 20:00:00 21.1 7 Sudeste 18 Sur 0 -- -- 44
2018-05-14 19:00:00 21.9 7 Sur 17 Sur 0 -- -- 44
2018-05-14 18:00:00 21.2 9 Sur 25 Sur 0 -- -- 45
2018-05-14 17:00:00 20.8 13 Sudeste 27 Sur 0 -- -- 44
2018-05-14 16:00:00 21.2 16 Sur 35 Sur 0 -- -- 40
2018-05-14 15:00:00 23.5 8 Oeste 27 Oeste 0 -- -- 30
2018-05-14 14:00:00 21.3 11 Noroeste 23 Noroeste 0 -- -- 32
2018-05-14 13:00:00 20.6 10 Noroeste 21 Oeste 0 -- -- 32
2018-05-14 12:00:00 18 5 Noroeste 17 Noroeste 0 -- -- 39
2018-05-14 11:00:00 16.9 8 Noroeste 22 Noroeste 0 -- -- 40
2018-05-14 10:00:00 15.1 5 Noroeste 12 Noroeste 0 -- -- 58
2018-05-14 09:00:00 13.4 0 Calma 10 Norte 0 -- -- 74
2018-05-14 08:00:00 10.9 4 Este 8 Oeste 0 -- -- 79
2018-05-14 07:00:00 9.2 3 Sudeste 6 Sur 0 -- -- 88
2018-05-14 06:00:00 8.7 3 Sudeste 6 Sur 0 -- -- 86
2018-05-14 05:00:00 8.8 3 Sur 6 Sudoeste 0 -- -- 87
2018-05-14 04:00:00 8.3 0 Calma 4 Sudeste 0 -- -- 77
2018-05-14 03:00:00 8.5 2 Sur 4 Sudeste 0 -- -- 73
2018-05-14 02:00:00 9.3 0 Calma 5 Sudeste 0 -- -- 64
2018-05-14 01:00:00 10.9 2 Nordeste 6 Sur 0 -- -- 59
2018-05-11 20:00:00 -- -- -- -- -- -- -- -- --
2018-05-11 19:00:00 -- -- -- -- -- -- -- -- --
2018-05-11 18:00:00 25.3 14 Sur 25 Sur 0 -- -- 56
2018-05-11 17:00:00 26.1 14 Sur 22 Sudeste 0 -- -- 54
2018-05-11 16:00:00 25.4 4 Nordeste 17 Nordeste 0 -- -- 57
2018-05-11 15:00:00 23.2 10 Norte 22 Nordeste 0 -- -- 64
2018-05-11 14:00:00 23 9 Norte 19 Norte 0 -- -- 63
2018-05-11 13:00:00 21.6 10 Norte 19 Nordeste 0 -- -- 65
2018-05-11 12:00:00 20.6 8 Nordeste 19 Norte 0 -- -- 67
2018-05-11 11:00:00 20.1 6 Sur 21 Sur 0 -- -- 64
2018-05-11 10:00:00 17.4 8 Sudeste 13 Sur 0 -- -- 76
2018-05-11 09:00:00 14.8 0 Calma 5 Noroeste 0 -- -- 90
2018-05-11 08:00:00 13.6 0 Calma 7 Nordeste 0 -- -- 94
2018-05-11 07:00:00 12 0 Calma 6 Sudeste 0 -- -- 96
2018-05-11 06:00:00 11.3 4 Sur 7 Sur 0 -- -- 95
2018-05-11 05:00:00 11.3 4 Sur 8 Sur 0 -- -- 95
2018-05-11 04:00:00 11.5 0 Calma 4 Este 0 -- -- 96
2018-05-11 03:00:00 10.9 2 Sur 4 Sudeste 0 -- -- 91
2018-05-11 02:00:00 11.6 2 Sudeste 6 Sur 0 -- -- 89
2018-05-11 01:00:00 12.6 3 Sur 7 Sudeste 0 -- -- 85
2018-05-11 00:00:00 14 3 Sur 9 Noroeste 0 -- -- 78
2018-05-10 23:00:00 15.3 5 Nordeste 18 Sudeste 0 -- -- 72
2018-05-10 22:00:00 17.3 15 Sudeste 26 Sur 0 -- -- 60
2018-05-10 21:00:00 16.5 4 Sur 21 Sur 0 -- -- 68
2018-05-10 20:00:00 17 13 Sur 32 Sur 0 -- -- 67
2018-05-10 19:00:00 18.3 23 Sur 35 Sur 0 -- -- 64
2018-05-10 18:00:00 20.9 22 Sur 39 Sur 0 -- -- 52
2018-05-10 17:00:00 22.1 22 Sur 36 Sudeste 0 -- -- 48
2018-05-10 16:00:00 22.7 18 Sur 35 Sur 0 -- -- 42
2018-05-10 15:00:00 22.5 16 Sur 30 Sur 0 -- -- 43
2018-05-10 14:00:00 21.7 17 Sur 32 Sudoeste 0 -- -- 51
2018-05-10 13:00:00 21.1 15 Sur 33 Sur 0 -- -- 54
2018-05-10 12:00:00 20.6 13 Sur 29 Sur 0 -- -- 61
2018-05-10 11:00:00 19.8 15 Sur 25 Sur 0 -- -- 64
2018-05-10 10:00:00 18.9 4 Sur 15 Nordeste 0 -- -- 70
2018-05-10 09:00:00 17.1 5 Norte 12 Nordeste 0 -- -- 81
2018-05-10 08:00:00 14.9 0 Calma 7 Sur 0 -- -- 96
2018-05-10 07:00:00 14.8 4 Sur 9 Sur 0 -- -- 96
2018-05-10 06:00:00 15.3 3 Nordeste 9 Sudeste 0.6 -- -- 97
2018-05-10 05:00:00 15.8 4 Norte 14 Norte 2.4 -- -- 95
2018-05-10 04:00:00 15.6 0 Calma 7 Noroeste 0 -- -- 93
2018-05-10 03:00:00 15 0 Calma 2 Oeste 0 -- -- 94
2018-05-10 02:00:00 15.4 0 Calma 8 Noroeste 0 -- -- 96
2018-05-10 01:00:00 16.4 6 Oeste 11 Noroeste 0 -- -- 91
2018-05-10 00:00:00 17 4 Este 10 Noroeste 0 -- -- 90
2018-05-09 23:00:00 17.4 3 Oeste 8 Noroeste 0 -- -- 87
2018-05-09 22:00:00 18.7 3 Noroeste 16 Noroeste 0 -- -- 81
2018-05-09 21:00:00 20 9 Noroeste 17 Oeste 0 -- -- 76
2018-05-09 20:00:00 22.2 4 Nordeste 17 Nordeste 0 -- -- 64
2018-05-09 19:00:00 24.2 7 Noroeste 20 Oeste 0 -- -- 50
2018-05-09 18:00:00 24.1 14 Sudoeste 37 Sudoeste 0 -- -- 56
2018-05-09 17:00:00 22.7 14 Noroeste 32 Norte 0 -- -- 61
2018-05-09 16:00:00 27.5 10 Sur 23 Sur 0 -- -- 44
2018-05-09 15:00:00 27.1 15 Sur 26 Sur 0 -- -- 47
2018-05-09 14:00:00 25.7 7 Nordeste 18 Nordeste 0 -- -- 50
2018-05-09 13:00:00 24.2 10 Nordeste 20 Norte 0 -- -- 56
2018-05-09 12:00:00 23.7 5 Norte 15 Noroeste 0 -- -- 52
2018-05-09 11:00:00 22.1 4 Nordeste 10 Nordeste 0 -- -- 57
2018-05-09 10:00:00 20.1 8 Noroeste 15 Noroeste 0 -- -- 65
2018-05-09 09:00:00 17 7 Noroeste 13 Noroeste 0 -- -- 77
2018-05-09 08:00:00 14.6 0 Calma 8 Noroeste 0 -- -- 85
2018-05-09 07:00:00 15.7 4 Nordeste 8 Sudeste 0 -- -- 84
2018-05-09 06:00:00 14 5 Sur 10 Sur 0 -- -- 87
2018-05-09 05:00:00 14.7 4 Sudeste 12 Sur 0 -- -- 85
2018-05-09 04:00:00 14.9 6 Sur 9 Sur 0 -- -- 84
2018-05-09 03:00:00 14.2 6 Sur 10 Sur 0 -- -- 88
2018-05-09 02:00:00 14.4 4 Sur 6 Sur 0 -- -- 83
2018-05-09 01:00:00 15.3 5 Sur 9 Sur 0 -- -- 82
2018-05-09 00:00:00 15.5 3 Sur 8 Sur 0 -- -- 80
2018-05-08 23:00:00 16 4 Sur 6 Sur 0 -- -- 78
2018-05-08 22:00:00 17.8 0 Calma 5 Oeste 0 -- -- 74
2018-05-08 21:00:00 18.2 3 Noroeste 12 Noroeste 0 -- -- 74
2018-05-08 20:00:00 19.3 8 Noroeste 15 Noroeste 0 -- -- 69
2018-05-08 19:00:00 20.2 8 Norte 14 Norte 0 -- -- 62
2018-05-08 18:00:00 21.8 9 Sudoeste 17 Sudoeste 0 -- -- 57
2018-05-08 17:00:00 23.1 6 Nordeste 16 Nordeste 0 -- -- 51
2018-05-08 16:00:00 24.3 8 Este 22 Nordeste 0 -- -- 46
2018-05-08 15:00:00 24.6 9 Norte 24 Norte 0 -- -- 47
2018-05-08 14:00:00 24.4 11 Nordeste 20 Norte 0 -- -- 48
2018-05-08 13:00:00 24 7 Nordeste 16 Norte 0 -- -- 49
2018-05-08 12:00:00 22.5 7 Norte 16 Norte 0 -- -- 55
2018-05-08 11:00:00 22.3 6 Noroeste 14 Oeste 0 -- -- 54
2018-05-08 10:00:00 20.5 9 Oeste 15 Oeste 0 -- -- 60
2018-05-08 09:00:00 17.4 4 Nordeste 10 Este 0 -- -- 65
2018-05-08 08:00:00 14.5 3 Nordeste 9 Norte 0 -- -- 72
2018-05-08 07:00:00 12.5 0 Calma 8 Sur 0 -- -- 79
2018-05-08 06:00:00 13 4 Sur 9 Sudeste 0 -- -- 76
2018-05-08 05:00:00 11.7 4 Sur 8 Sur 0 -- -- 81
2018-05-08 04:00:00 12.1 6 Sur 10 Sur 0 -- -- 81
2018-05-08 03:00:00 11.5 4 Sur 8 Sur 0 -- -- 83
2018-05-08 02:00:00 12 4 Sur 7 Sur 0 -- -- 81
2018-05-08 01:00:00 12.4 3 Sur 6 Sur 0 -- -- 81
2018-05-08 00:00:00 13.3 4 Sur 8 Sudeste 0 -- -- 77
2018-05-07 23:00:00 13.4 2 Sur 8 Sur 0 -- -- 78
2018-05-07 22:00:00 14.1 0 Calma 5 Sur 0 -- -- 77
2018-05-07 21:00:00 16.5 3 Sur 15 Nordeste 0 -- -- 72
2018-05-07 20:00:00 18.3 7 Norte 22 Norte 0 -- -- 63
2018-05-07 19:00:00 19.7 12 Norte 23 Norte 0 -- -- 59
2018-05-07 18:00:00 23.4 9 Sur 20 Sur 0 -- -- 51
2018-05-07 17:00:00 23.6 13 Sur 23 Sur 0 -- -- 48
2018-05-07 16:00:00 23.8 12 Sur 23 Sur 0 -- -- 50
2018-05-07 15:00:00 23.9 6 Sur 15 Sur 0 -- -- 49
2018-05-07 14:00:00 22.4 6 Este 23 Norte 0 -- -- 51
2018-05-07 13:00:00 20.3 9 Norte 16 Norte 0 -- -- 59
2018-05-07 12:00:00 18 9 Norte 14 Norte 0 -- -- 72
2018-05-07 11:00:00 17.4 6 Este 13 Norte 0 -- -- 72
2018-05-07 10:00:00 17.3 4 Norte 8 Norte 0 -- -- 70
2018-05-07 09:00:00 12.6 0 Calma 4 Sur 0 -- -- 99
2018-05-07 08:00:00 10 3 Sur 5 Sudeste 0 -- -- 96
2018-05-07 07:00:00 9.7 3 Sur 6 Sur 0 -- -- 95
2018-05-07 06:00:00 9.3 3 Sur 4 Noroeste 0 -- -- 94
2018-05-07 05:00:00 9.6 2 Sur 4 Sur 0 -- -- 92
2018-05-07 04:00:00 10.5 2 Sudeste 6 Sur 0 -- -- 89
2018-05-07 03:00:00 11 4 Sur 6 Sur 0 -- -- 89
2018-05-07 02:00:00 11.2 4 Sudeste 5 Sudeste 0 -- -- 88
2018-05-07 01:00:00 12.4 3 Sur 8 Sur 0 -- -- 84
2018-05-07 00:00:00 12.6 3 Sur 5 Sur 0 -- -- 83
2018-05-06 23:00:00 14 3 Sudoeste 19 Sur 0 -- -- 77
2018-05-06 22:00:00 15.7 8 Sur 18 Sur 0 -- -- 72
2018-05-06 21:00:00 16.7 8 Sur 18 Sur 0 -- -- 68
2018-05-06 20:00:00 17.9 7 Sur 28 Sur 0 -- -- 63
2018-05-06 19:00:00 19.9 14 Sur 27 Sur 0 -- -- 57
2018-05-06 18:00:00 21.8 14 Sur 31 Sur 0 -- -- 51
2018-05-06 17:00:00 23.3 14 Sur 28 Sur 0 -- -- 48
2018-05-06 16:00:00 23.7 11 Sur 31 Sur 0 -- -- 46
2018-05-06 15:00:00 23.4 13 Sur 29 Sudeste 0 -- -- 46
2018-05-06 14:00:00 23.7 13 Sur 27 Sur 0 -- -- 46
2018-05-06 13:00:00 22.7 11 Sur 27 Sur 0 -- -- 49
2018-05-06 12:00:00 20.4 10 Norte 18 Nordeste 0 -- -- 56
2018-05-06 11:00:00 18.4 4 Nordeste 11 Noroeste 0 -- -- 63
2018-05-06 10:00:00 17.7 5 Norte 11 Noroeste 0 -- -- 65
2018-05-06 09:00:00 13.2 2 Este 4 Este 0 -- -- 82
2018-05-06 08:00:00 10.8 2 Sur 6 Sudeste 0 -- -- 90
2018-05-06 07:00:00 10.8 5 Sur 8 Sur 0 -- -- 88
2018-05-06 06:00:00 10.4 3 Sudeste 6 Sur 0 -- -- 88
2018-05-06 05:00:00 11 0 Calma 4 Noroeste 0 -- -- 87
2018-05-06 04:00:00 12.3 0 Calma 4 Nordeste 0 -- -- 83
2018-05-06 03:00:00 11.8 2 Norte 6 Norte 0 -- -- 89
2018-05-06 02:00:00 11.3 0 Calma 6 Sudeste 0 -- -- 87
2018-05-06 01:00:00 11.9 0 Calma 5 Sudeste 0 -- -- 82
2018-05-06 00:00:00 12.9 2 Sur 5 Sur 0 -- -- 79
2018-05-05 23:00:00 13.9 0 Calma 8 Sur 0 -- -- 74
2018-05-05 22:00:00 14.9 3 Oeste 9 Sur 0 -- -- 71
2018-05-05 21:00:00 15.6 2 Nordeste 14 Nordeste 0 -- -- 70
2018-05-05 20:00:00 18 5 Oeste 22 Sur 0 -- -- 55
2018-05-05 19:00:00 18.2 13 Sur 36 Sur 0 -- -- 50
2018-05-05 18:00:00 19.3 18 Sur 31 Sur 0 -- -- 50
2018-05-05 17:00:00 20.3 16 Sur 29 Sur 0 -- -- 49
2018-05-05 16:00:00 21.3 17 Sur 27 Sur 0 -- -- 46
2018-05-05 15:00:00 24.8 6 Sur 24 Sudeste 0 -- -- 40
2018-05-05 14:00:00 23.8 9 Noroeste 23 Nordeste 0 -- -- 41
2018-05-05 13:00:00 22.5 5 Nordeste 18 Nordeste 0 -- -- 46
2018-05-05 12:00:00 20.8 5 Nordeste 14 Nordeste 0 -- -- 46
2018-05-05 11:00:00 19.1 8 Nordeste 17 Noroeste 0 -- -- 52
2018-05-05 10:00:00 17.7 6 Noroeste 13 Noroeste 0 -- -- 53
2018-05-05 09:00:00 15.4 0 Calma 9 Este 0 -- -- 63
2018-05-05 08:00:00 14 5 Este 10 Este 0 -- -- 65
2018-05-05 07:00:00 12.7 5 Sur 10 Sur 0 -- -- 71
2018-05-05 06:00:00 12.2 5 Sur 10 Sur 0 -- -- 72
2018-05-05 05:00:00 11.6 4 Sudeste 8 Sur 0 -- -- 73
2018-05-05 04:00:00 13 5 Sur 9 Sur 0 -- -- 68
2018-05-05 03:00:00 13.5 3 Sur 4 Sur 0 -- -- 71
2018-05-05 02:00:00 13.8 0 Calma 3 Oeste 0 -- -- 69
2018-05-05 01:00:00 13.9 0 Calma 5 Noroeste 0 -- -- 70
2018-05-05 00:00:00 13.6 4 Sur 8 Sur 0 -- -- 73
2018-05-04 23:00:00 14 2 Sur 4 Sudeste 0 -- -- 77
2018-05-04 22:00:00 14.1 0 Calma 6 Sudeste 0 -- -- 75
2018-05-04 21:00:00 15 4 Sur 11 Sur 0 -- -- 61
2018-05-04 20:00:00 15.7 3 Sudoeste 13 Sudeste 0 -- -- 67
2018-05-04 19:00:00 17.7 4 Sur 16 Norte 0 -- -- 45
2018-05-04 18:00:00 20 4 Este 19 Sur 0 -- -- 39
2018-05-04 17:00:00 20.7 11 Sur 20 Sur 0 -- -- 42
2018-05-04 16:00:00 20.7 11 Sur 19 Sur 0 -- -- 40
2018-05-04 15:00:00 18.9 9 Este 19 Nordeste 0 -- -- 42
2018-05-04 14:00:00 20 3 Sur 13 Sudoeste 0 -- -- 43
2018-05-04 13:00:00 17.7 7 Nordeste 21 Norte 0 -- -- 46
2018-05-04 12:00:00 17.9 7 Nordeste 18 Nordeste 0 -- -- 47
2018-05-04 11:00:00 16.6 5 Nordeste 10 Nordeste 0 -- -- 47
2018-05-04 10:00:00 14.6 4 Nordeste 9 Norte 0 -- -- 54
2018-05-04 09:00:00 11 3 Nordeste 6 Nordeste 0 -- -- 81
2018-05-04 08:00:00 7.8 2 Sudeste 8 Sudeste 0 -- -- 86
2018-05-04 07:00:00 7.7 4 Sur 8 Sur 0 -- -- 92
2018-05-04 06:00:00 7.1 4 Sur 6 Sur 0 -- -- 93
2018-05-04 05:00:00 7.8 0 Calma 5 Sur 0 -- -- 88
2018-05-04 04:00:00 8.8 0 Calma 8 Este 0 -- -- 88
2018-05-04 03:00:00 10.4 0 Calma 9 Sudeste 0 -- -- 84
2018-05-04 02:00:00 11.4 0 Calma 10 Oeste 0 -- -- 80
2018-05-04 01:00:00 14.4 3 Norte 17 Nordeste 0 -- -- 61
2018-05-04 00:00:00 13.9 2 Norte 12 Sudoeste 0 -- -- 64
2018-05-03 23:00:00 13 4 Este 12 Este 0 -- -- 74
2018-05-03 22:00:00 13.3 2 Oeste 6 Sudoeste 0 -- -- 86
2018-05-03 21:00:00 15 2 Norte 21 Nordeste 0 -- -- 83
2018-05-03 20:00:00 17.7 5 Norte 13 Sur 0 -- -- 72
2018-05-03 19:00:00 19.9 10 Sur 22 Sur 0 -- -- 50
2018-05-03 18:00:00 19.3 13 Sur 33 Sur 0 -- -- 53
2018-05-03 17:00:00 21.8 18 Sur 36 Sudeste 0 -- -- 46
2018-05-03 16:00:00 21.6 18 Sur 32 Sur 0 -- -- 44
2018-05-03 15:00:00 23 10 Este 29 Sur 0 -- -- 40
2018-05-03 14:00:00 24.1 9 Oeste 26 Oeste 0 -- -- 34
2018-05-03 13:00:00 21.4 11 Noroeste 24 Noroeste 0 -- -- 39
2018-05-03 12:00:00 20.4 8 Norte 24 Noroeste 0 -- -- 42
2018-05-03 11:00:00 19.3 8 Noroeste 21 Oeste 0 -- -- 45
2018-05-03 10:00:00 17.4 9 Oeste 23 Noroeste 0 -- -- 49
2018-05-03 09:00:00 14.8 9 Noroeste 19 Noroeste 0 -- -- 52
2018-05-03 08:00:00 12.7 4 Norte 13 Noroeste 0 -- -- 55
2018-05-03 07:00:00 12.6 6 Norte 13 Norte 0 -- -- 53
2018-05-03 06:00:00 13.1 8 Norte 17 Noroeste 0 -- -- 50
2018-05-03 05:00:00 13.1 6 Norte 11 Norte 0 -- -- 47
2018-05-03 04:00:00 13.4 3 Nordeste 13 Norte 0 -- -- 45
2018-05-03 03:00:00 13.8 6 Norte 12 Norte 0 -- -- 48
2018-05-03 02:00:00 14.5 6 Norte 12 Nordeste 0 -- -- 45
2018-05-03 01:00:00 15.3 8 Norte 14 Norte 0 -- -- 41
2018-05-03 00:00:00 15.5 8 Norte 13 Norte 0 -- -- 41
2018-05-02 23:00:00 14.9 6 Nordeste 13 Norte 0 -- -- 43
2018-05-02 22:00:00 16.6 9 Norte 16 Norte 0 -- -- 38
2018-05-02 21:00:00 18.2 9 Norte 22 Norte 0 -- -- 34
2018-05-02 20:00:00 19.9 13 Norte 26 Noroeste 0 -- -- 30
2018-05-02 19:00:00 20.3 14 Norte 31 Noroeste 0 -- -- 30
2018-05-02 18:00:00 21.1 17 Noroeste 31 Noroeste 0 -- -- 29
2018-05-02 17:00:00 21.2 13 Noroeste 36 Noroeste 0 -- -- 29
2018-05-02 16:00:00 21.5 9 Noroeste 28 Noroeste 0 -- -- 28
2018-05-02 15:00:00 22.3 13 Noroeste 34 Noroeste 0 -- -- 27
2018-05-02 14:00:00 20.3 16 Noroeste 35 Norte 0 -- -- 28
2018-05-02 13:00:00 19.8 15 Noroeste 30 Noroeste 0 -- -- 30
2018-05-02 12:00:00 18.1 11 Noroeste 23 Noroeste 0 -- -- 37
2018-05-02 11:00:00 15.9 12 Noroeste 25 Noroeste 0 -- -- 44
2018-05-02 10:00:00 13.5 12 Noroeste 26 Oeste 0 -- -- 52
2018-05-02 09:00:00 10.7 5 Noroeste 24 Oeste 0 -- -- 63
2018-05-02 08:00:00 8 4 Sur 13 Sur 0 -- -- 75
2018-05-02 07:00:00 7.8 3 Sur 14 Sudeste 0 -- -- 79
2018-05-02 06:00:00 8.2 4 Sudeste 12 Sudeste 0 -- -- 80
2018-05-02 05:00:00 7.9 0 Calma 10 Sudeste 0 -- -- 88
2018-05-02 04:00:00 7.5 3 Este 8 Este 0 -- -- 89
2018-05-02 03:00:00 7.1 0 Calma 8 Sudeste 0 -- -- 87
2018-05-02 02:00:00 6.8 4 Sur 6 Sur 0 -- -- 85
2018-05-02 01:00:00 8.6 0 Calma 4 Oeste 0 -- -- 78
2018-05-02 00:00:00 9.6 3 Sudeste 8 Sudeste 0 -- -- 75
2018-05-01 23:00:00 9.8 6 Sur 13 Sudoeste 0 -- -- 75
2018-05-01 22:00:00 11.4 7 Sur 19 Sur 0 -- -- 66
2018-05-01 21:00:00 12 12 Sudeste 28 Sur 0 -- -- 59
2018-05-01 20:00:00 13 16 Sur 35 Sur 0 -- -- 60
2018-05-01 19:00:00 14.3 15 Sur 30 Sur 0 -- -- 60
2018-05-01 18:00:00 16.1 18 Sur 32 Sur 0 -- -- 53
2018-05-01 17:00:00 17.2 15 Sur 28 Sur 0 -- -- 47
2018-05-01 16:00:00 17.9 13 Sur 24 Sur 0 -- -- 45
2018-05-01 15:00:00 16.4 9 Sur 25 Norte 0 -- -- 47
2018-05-01 14:00:00 16.3 7 Este 26 Sudoeste 0 -- -- 43
2018-05-01 13:00:00 16.1 7 Norte 21 Nordeste 0 -- -- 42
2018-05-01 12:00:00 14.9 6 Este 17 Norte 0 -- -- 45
2018-05-01 11:00:00 13.4 5 Norte 12 Norte 0 -- -- 49
2018-05-01 10:00:00 11.3 4 Noroeste 10 Noroeste 0 -- -- 54
2018-05-01 09:00:00 7.8 3 Este 5 Nordeste 0 -- -- 71
2018-05-01 08:00:00 6.2 0 Calma 6 Sudoeste 0 -- -- 74
2018-05-01 07:00:00 5.5 2 Sudeste 4 Sudeste 0 -- -- 77
2018-05-01 06:00:00 7.3 2 Sudeste 9 Nordeste 0 -- -- 68
2018-05-01 05:00:00 8.3 3 Nordeste 10 Este 0 -- -- 64
2018-05-01 04:00:00 9.1 5 Norte 21 Noroeste 0 -- -- 62
2018-05-01 03:00:00 10.6 8 Noroeste 19 Oeste 0 -- -- 59
2018-05-01 02:00:00 11.4 5 Noroeste 23 Noroeste 0 -- -- 57
2018-05-01 01:00:00 12.1 8 Noroeste 21 Norte 0 -- -- 53
2018-05-01 00:00:00 12.8 10 Norte 21 Noroeste 0 -- -- 48
2018-04-30 23:00:00 13.3 5 Norte 18 Noroeste 0 -- -- 49
2018-04-30 22:00:00 13.4 3 Sudeste 14 Sudoeste 0 -- -- 49
2018-04-30 21:00:00 13.8 8 Sur 18 Oeste 0 -- -- 53
2018-04-30 20:00:00 14.6 4 Sur 15 Noroeste 0 -- -- 54
2018-04-30 19:00:00 14.6 10 Sur 20 Sur 0 -- -- 59
2018-04-30 18:00:00 14.6 13 Sur 23 Sur 0 -- -- 58
2018-04-30 17:00:00 14.6 12 Sur 23 Sur 0 -- -- 53
2018-04-30 16:00:00 14.6 12 Sur 21 Sudeste 0 -- -- 57
2018-04-30 15:00:00 15.1 12 Sur 20 Sur 0 -- -- 54
2018-04-30 14:00:00 16.3 11 Sur 19 Oeste 0 -- -- 49
2018-04-30 13:00:00 17.1 9 Noroeste 27 Norte 0 -- -- 45
2018-04-30 12:00:00 15.7 6 Norte 18 Noroeste 0 -- -- 49
2018-04-30 11:00:00 14.2 10 Norte 22 Norte 0 -- -- 54
2018-04-30 10:00:00 13 8 Norte 18 Oeste 0 -- -- 57
2018-04-30 09:00:00 10.3 3 Nordeste 10 Noroeste 0 -- -- 71
2018-04-30 08:00:00 7.4 3 Sur 8 Sur 0 -- -- 80
2018-04-30 07:00:00 7.4 4 Sur 8 Nordeste 0 -- -- 76
2018-04-30 06:00:00 9.2 4 Nordeste 10 Nordeste 0 -- -- 69
2018-04-30 05:00:00 9.9 3 Este 13 Sudoeste 0 -- -- 64
2018-04-30 04:00:00 11.2 3 Sudoeste 18 Noroeste 0 -- -- 60
2018-04-30 03:00:00 12.2 9 Noroeste 24 Oeste 0 -- -- 54
2018-04-30 02:00:00 12 9 Sudoeste 28 Oeste 0 -- -- 56
2018-04-30 01:00:00 12.3 6 Norte 19 Norte 0 -- -- 58
2018-04-30 00:00:00 12.8 6 Norte 18 Norte 0 -- -- 56
2018-04-29 23:00:00 13.6 8 Norte 35 Oeste 0 -- -- 48
2018-04-29 22:00:00 14.1 11 Noroeste 35 Sudoeste 0 -- -- 47
2018-04-29 21:00:00 14.9 15 Noroeste 40 Oeste 0 -- -- 41
2018-04-29 20:00:00 16.2 17 Noroeste 51 Noroeste 0 -- -- 43
2018-04-29 19:00:00 17 16 Noroeste 46 Noroeste 0 -- -- 41
2018-04-29 18:00:00 17.7 23 Noroeste 52 Norte 0 -- -- 38
2018-04-29 17:00:00 17.5 19 Noroeste 48 Noroeste 0 -- -- 38
2018-04-29 16:00:00 17.4 22 Noroeste 51 Noroeste 0 -- -- 38
2018-04-29 15:00:00 17.4 23 Noroeste 47 Oeste 0 -- -- 35
2018-04-29 14:00:00 16.9 22 Noroeste 55 Norte 0 -- -- 38
2018-04-29 13:00:00 17.2 22 Noroeste 45 Noroeste 0 -- -- 39
2018-04-29 12:00:00 15 18 Noroeste 45 Noroeste 0 -- -- 45
2018-04-29 11:00:00 13.9 21 Noroeste 46 Noroeste 0 -- -- 46
2018-04-29 10:00:00 14.1 12 Norte 29 Noroeste 0 -- -- 51
2018-04-29 09:00:00 11.9 5 Norte 12 Norte 0 -- -- 68
2018-04-29 08:00:00 11.3 3 Oeste 14 Noroeste 0 -- -- 66
2018-04-29 07:00:00 11.3 3 Oeste 14 Oeste 0 -- -- 71
2018-04-29 06:00:00 11.5 2 Nordeste 8 Norte 0 -- -- 79
2018-04-29 05:00:00 11.4 0 Calma 5 Sudeste 0 -- -- 88
2018-04-29 04:00:00 12.7 0 Calma 8 Sudeste 0 -- -- 93
2018-04-29 03:00:00 13 2 Este 12 Sur 0 -- -- 94
2018-04-29 02:00:00 13.5 0 Calma 6 Sudeste 0 -- -- 93
2018-04-29 01:00:00 12.9 0 Calma 16 Sur 0 -- -- 92
2018-04-29 00:00:00 14.1 4 Sudoeste 12 Sur 0 -- -- 93
2018-04-28 23:00:00 14 3 Norte 9 Noroeste 0 -- -- 95
2018-04-28 22:00:00 14.2 7 Oeste 13 Oeste 0 -- -- 94
2018-04-28 21:00:00 15.2 3 Oeste 17 Nordeste 0 -- -- 89
2018-04-28 20:00:00 16.8 12 Norte 21 Norte 0 -- -- 81
2018-04-28 19:00:00 19 11 Norte 26 Sudeste 0 -- -- 72
2018-04-28 18:00:00 21.3 14 Sudeste 38 Sudeste 0 -- -- 67
2018-04-28 17:00:00 21.2 24 Sur 39 Sur 0 -- -- 68
2018-04-28 16:00:00 21.8 22 Sudeste 37 Sur 0 -- -- 67
2018-04-28 15:00:00 22.7 16 Sur 29 Sur 0 -- -- 60
2018-04-28 14:00:00 22.5 15 Sur 26 Sur 0 -- -- 67
2018-04-28 13:00:00 20.6 10 Norte 18 Norte 0 -- -- 73
2018-04-28 12:00:00 19.6 7 Norte 15 Nordeste 0 -- -- 78
2018-04-28 11:00:00 18.2 6 Norte 12 Nordeste 0 -- -- 79
2018-04-28 10:00:00 16.5 3 Norte 6 Norte 0 -- -- 83
2018-04-28 09:00:00 15.1 2 Oeste 6 Noroeste 0 -- -- 93
2018-04-28 08:00:00 14.2 3 Oeste 8 Oeste 0 -- -- 99
2018-04-28 07:00:00 14 4 Oeste 7 Oeste 0 -- -- 100
2018-04-28 06:00:00 13.5 0 Calma 4 Sur 0 -- -- 100
2018-04-28 05:00:00 14.1 0 Calma 12 Noroeste 0 -- -- 100
2018-04-28 04:00:00 13.9 0 Calma 10 Norte 0 -- -- 99
2018-04-28 03:00:00 14.2 3 Nordeste 12 Noroeste 0 -- -- 97
2018-04-28 02:00:00 13.9 2 Sur 6 Oeste 0 -- -- 93
2018-04-28 01:00:00 14.4 0 Calma 6 Sudoeste 0 -- -- 92
2018-04-28 00:00:00 15.4 3 Sur 17 Sur 0 -- -- 90